Time;durP1;ratioP1;P1;durP2;ratioP2;P2;SDS_P1;SDS_P2;PMS_P1;PMS_P2;Temp;Humidity;BMP_temperature;BMP_pressure;BME280_temperature;BME280_humidity;BME280_pressure;Samples;Min_cycle;Max_cycle;Signal;HPM_P1;HPM_P2
2023/07/14 00:01:56;;;;;;;6.10;2.20;;;;;;;15.83;68.13;100705.54;105465;1257;69987;-50
2023/07/14 00:04:31;;;;;;;4.50;2.30;;;;;;;15.77;68.33;100704.13;105263;1254;70586;-48
2023/07/14 00:07:01;;;;;;;4.90;2.60;;;;;;;15.73;69.02;100702.54;105349;1258;74819;-48
2023/07/14 00:09:31;;;;;;;5.00;2.50;;;;;;;15.73;69.07;100705.21;105516;1253;83401;-48
2023/07/14 00:12:01;;;;;;;4.40;2.50;;;;;;;15.71;69.59;100705.48;105672;1256;73642;-49
2023/07/14 00:14:29;;;;;;;4.20;2.60;;;;;;;15.71;69.83;100710.76;105498;1254;69866;-49
2023/07/14 00:16:58;;;;;;;4.40;2.40;;;;;;;15.69;69.83;100712.43;105477;1257;70000;-48
2023/07/14 00:19:27;;;;;;;3.40;2.30;;;;;;;15.68;69.79;100713.90;105464;1253;74767;-48
2023/07/14 00:21:55;;;;;;;6.50;2.20;;;;;;;15.66;69.74;100716.63;105488;1253;83341;-49
2023/07/14 00:24:23;;;;;;;5.60;2.60;;;;;;;15.65;70.26;100718.09;105440;1253;73295;-48
2023/07/14 00:26:55;;;;;;;3.20;2.20;;;;;;;15.69;70.81;100720.73;105468;1257;70079;-48
2023/07/14 00:29:37;;;;;;;3.50;2.40;;;;;;;15.63;70.87;100720.66;105567;1257;70072;-49
2023/07/14 00:32:20;;;;;;;7.20;2.50;;;;;;;15.54;70.96;100720.08;105459;1257;73888;-48
2023/07/14 00:34:49;;;;;;;4.30;2.20;;;;;;;15.44;71.11;100719.00;105431;1253;83595;-49
2023/07/14 00:37:18;;;;;;;6.70;2.40;;;;;;;15.37;71.69;100715.17;105398;1258;72657;-49
2023/07/14 00:39:46;;;;;;;4.90;2.50;;;;;;;15.27;71.81;100717.08;105439;1257;69992;-49
2023/07/14 00:42:16;;;;;;;4.50;2.30;;;;;;;15.14;71.77;100723.22;105440;1258;69983;-48
2023/07/14 00:44:45;;;;;;;5.50;2.60;;;;;;;14.99;71.99;100727.30;105418;1253;74747;-51
2023/07/14 00:47:22;;;;;;;3.40;2.20;;;;;;;14.85;72.26;100731.71;105246;1259;83143;-48
2023/07/14 00:49:51;;;;;;;6.10;2.30;;;;;;;14.75;72.78;100729.23;105203;1259;73022;-49
2023/07/14 00:52:40;;;;;;;3.20;2.60;;;;;;;14.67;73.23;100730.98;105470;1256;70029;-49
2023/07/14 00:55:49;;;;;;;5.90;2.50;;;;;;;14.61;73.75;100733.94;105322;1258;69956;-48
2023/07/14 00:58:21;;;;;;;4.50;2.70;;;;;;;14.59;74.15;100733.17;105480;1253;75138;-49
2023/07/14 01:01:01;;;;;;;3.50;2.50;;;;;;;14.63;74.47;100734.35;105463;1253;83343;-48
2023/07/14 01:03:30;;;;;;;3.70;2.20;;;;;;;14.66;74.76;100737.71;105516;1257;73638;-48
2023/07/14 01:06:02;;;;;;;3.30;2.00;;;;;;;14.63;74.66;100741.77;105426;1256;70096;-49
2023/07/14 01:08:31;;;;;;;4.60;2.40;;;;;;;14.53;74.53;100741.55;105657;1253;69898;-48
2023/07/14 01:10:59;;;;;;;5.10;2.10;;;;;;;14.45;74.66;100744.33;105233;1258;74442;-49
2023/07/14 01:13:29;;;;;;;6.40;2.60;;;;;;;14.36;74.64;100746.68;105423;1256;82317;-49
2023/07/14 01:15:57;;;;;;;5.50;2.50;;;;;;;14.28;74.78;100749.70;105459;1257;73897;-49
2023/07/14 01:18:27;;;;;;;7.50;2.00;;;;;;;14.20;74.96;100755.16;105399;1256;69888;-48
2023/07/14 01:20:55;;;;;;;3.20;2.20;;;;;;;14.16;75.36;100760.10;105436;1257;69891;-48
2023/07/14 01:23:33;;;;;;;5.90;2.60;;;;;;;14.16;75.58;100758.02;105483;1258;73743;-48
2023/07/14 01:26:18;;;;;;;6.20;2.60;;;;;;;14.16;76.01;100758.20;105686;1256;83398;-49
2023/07/14 01:28:47;;;;;;;4.70;2.20;;;;;;;14.16;75.91;100760.29;105247;1253;73715;-48
2023/07/14 01:31:20;;;;;;;3.40;2.50;;;;;;;14.12;76.09;100766.27;105429;1257;69996;-48
2023/07/14 01:33:52;;;;;;;4.10;2.40;;;;;;;14.06;76.27;100763.20;105463;1253;69963;-48
2023/07/14 01:36:22;;;;;;;5.00;2.40;;;;;;;14.04;76.68;100762.76;105220;1258;72840;-49
2023/07/14 01:38:51;;;;;;;3.80;2.30;;;;;;;14.01;76.85;100763.77;105290;1253;82847;-49
2023/07/14 01:41:20;;;;;;;4.70;2.40;;;;;;;13.94;76.93;100763.04;105434;1257;73968;-49
2023/07/14 01:43:53;;;;;;;10.60;3.00;;;;;;;13.92;77.28;100770.52;105236;1255;71328;-48
2023/07/14 01:46:22;;;;;;;4.90;2.50;;;;;;;13.91;77.42;100772.67;105494;1253;69977;-49
2023/07/14 01:49:01;;;;;;;5.00;2.40;;;;;;;13.87;77.33;100777.06;105292;1253;74731;-49
2023/07/14 01:51:35;;;;;;;5.50;2.40;;;;;;;13.83;77.65;100776.37;105458;1258;83282;-49
2023/07/14 01:54:03;;;;;;;6.60;2.80;;;;;;;13.77;77.73;100775.05;105420;1257;71399;-48
2023/07/14 01:56:33;;;;;;;5.90;2.50;;;;;;;13.72;78.00;100779.99;105427;1259;70717;-48
2023/07/14 01:59:09;;;;;;;5.80;2.40;;;;;;;13.67;78.19;100781.64;105193;1253;70052;-48
2023/07/14 02:01:41;;;;;;;4.90;2.70;;;;;;;13.65;78.83;100784.52;105466;1256;73880;-50
2023/07/14 02:04:18;;;;;;;6.10;3.00;;;;;;;13.69;79.37;100787.71;105343;1260;83350;-48
2023/07/14 02:06:47;;;;;;;6.70;2.50;;;;;;;13.73;79.76;100789.29;105362;1258;73727;-51
2023/07/14 02:09:20;;;;;;;4.10;2.50;;;;;;;13.75;80.03;100793.04;105199;1258;69976;-49
2023/07/14 02:11:59;;;;;;;8.20;3.20;;;;;;;13.80;80.33;100796.35;105527;1257;69874;-48
2023/07/14 02:14:51;;;;;;;5.50;3.00;;;;;;;13.85;80.55;100792.80;105122;1253;73661;-48
2023/07/14 02:17:30;;;;;;;5.60;2.90;;;;;;;13.88;80.44;100795.64;105486;1257;83545;-48
2023/07/14 02:20:06;;;;;;;6.70;2.70;;;;;;;13.83;80.26;100803.77;105190;1259;73633;-49
2023/07/14 02:22:35;;;;;;;6.60;2.70;;;;;;;13.76;80.15;100801.25;105438;1259;69990;-49
2023/07/14 02:25:08;;;;;;;4.40;2.90;;;;;;;13.71;80.39;100800.61;105454;1258;69971;-48
2023/07/14 02:27:36;;;;;;;4.60;3.40;;;;;;;13.70;80.46;100804.71;105427;1253;75086;-47
2023/07/14 02:30:19;;;;;;;3.50;2.30;;;;;;;13.64;80.28;100810.05;104916;1259;272547;-48
2023/07/14 02:32:58;;;;;;;4.00;2.60;;;;;;;13.57;80.25;100812.96;105293;1258;73588;-49
2023/07/14 02:36:02;;;;;;;4.70;2.70;;;;;;;13.52;80.54;100814.09;105448;1255;69954;-48
2023/07/14 02:38:30;;;;;;;6.10;3.10;;;;;;;13.45;80.55;100812.44;105475;1258;69923;-49
2023/07/14 02:41:10;;;;;;;6.10;3.00;;;;;;;13.39;80.89;100814.41;105447;1254;75022;-48
2023/07/14 02:43:40;;;;;;;4.90;2.80;;;;;;;13.36;80.96;100814.92;105447;1258;83396;-48
2023/07/14 02:46:16;;;;;;;4.80;3.00;;;;;;;13.30;81.11;100816.57;105297;1259;74416;-48
2023/07/14 02:48:48;;;;;;;6.30;2.80;;;;;;;13.25;81.11;100819.73;105441;1259;69901;-49
2023/07/14 02:51:16;;;;;;;5.30;3.10;;;;;;;13.19;81.17;100826.46;105512;1257;70000;-49
2023/07/14 02:53:45;;;;;;;4.60;2.90;;;;;;;13.17;81.52;100828.98;105678;1259;74982;-48
2023/07/14 02:56:13;;;;;;;5.00;2.60;;;;;;;13.14;81.45;100830.02;105608;1257;83720;-50
2023/07/14 02:58:47;;;;;;;9.00;2.80;;;;;;;13.10;81.47;100834.39;105409;1258;72616;-48
2023/07/14 03:01:17;;;;;;;4.60;2.90;;;;;;;13.05;81.63;100836.85;105432;1255;70003;-49
2023/07/14 03:03:46;;;;;;;;;;;;;;;13.02;81.62;100844.36;105477;1257;69872;-48
2023/07/14 03:06:17;;;;;;;6.90;2.80;;;;;;;12.98;81.89;100843.47;105518;1256;73753;-48
2023/07/14 03:08:46;;;;;;;5.20;3.20;;;;;;;12.95;81.99;100848.32;105267;1259;83326;-47
2023/07/14 03:11:14;;;;;;;7.40;3.10;;;;;;;12.92;82.29;100848.23;105482;1258;73266;-48
2023/07/14 03:13:43;;;;;;;4.20;2.50;;;;;;;12.90;82.45;100848.66;105314;1258;69959;-48
2023/07/14 03:16:13;;;;;;;3.10;2.60;;;;;;;12.91;82.64;100849.34;105475;1259;69826;-48
2023/07/14 03:18:43;;;;;;;7.40;2.60;;;;;;;12.91;82.74;100852.16;105479;1266;74657;-48
2023/07/14 03:21:12;;;;;;;6.30;2.90;;;;;;;12.91;82.79;100855.48;105500;1257;83287;-49
2023/07/14 03:23:41;;;;;;;3.40;2.50;;;;;;;12.92;82.94;100861.57;105544;1259;73542;-48
2023/07/14 03:26:10;;;;;;;7.10;2.80;;;;;;;12.99;83.24;100858.69;105413;1257;70000;-47
2023/07/14 03:28:39;;;;;;;5.30;2.90;;;;;;;13.03;83.37;100859.23;105522;1256;69889;-50
2023/07/14 03:31:08;;;;;;;6.00;2.90;;;;;;;13.07;83.50;100859.94;105477;1260;74694;-48
2023/07/14 03:33:38;;;;;;;5.00;2.90;;;;;;;13.12;83.98;100862.73;105176;1260;83789;-49
2023/07/14 03:36:09;;;;;;;9.60;3.70;;;;;;;13.20;84.19;100872.95;105460;1264;73500;-50
2023/07/14 03:38:40;;;;;;;3.40;2.60;;;;;;;13.24;84.34;100875.40;105719;1259;69976;-48
2023/07/14 03:41:13;;;;;;;6.40;2.80;;;;;;;13.30;84.44;100874.50;105563;1257;69950;-48
2023/07/14 03:43:42;;;;;;;5.90;3.50;;;;;;;13.35;84.49;100874.44;105516;1257;74791;-48
2023/07/14 03:46:11;;;;;;;5.40;2.70;;;;;;;13.42;84.37;100876.62;105103;1260;83389;-48
2023/07/14 03:48:40;;;;;;;5.40;2.70;;;;;;;13.49;84.52;100883.54;105451;1257;73570;-50
2023/07/14 03:51:09;;;;;;;4.50;2.80;;;;;;;13.54;84.48;100885.23;105404;1254;69974;-48
2023/07/14 03:53:38;;;;;;;4.60;2.70;;;;;;;13.60;84.30;100886.77;105445;1259;70037;-49
2023/07/14 03:56:06;;;;;;;7.60;3.10;;;;;;;13.66;84.34;100885.64;105412;1257;74137;-48
2023/07/14 03:58:35;;;;;;;5.40;3.10;;;;;;;13.74;84.41;100888.27;105499;1256;83286;-48
2023/07/14 04:01:03;;;;;;;4.00;3.00;;;;;;;13.78;84.35;100893.04;105466;1259;72426;-49
2023/07/14 04:03:31;;;;;;;5.50;2.80;;;;;;;13.78;84.32;100893.92;105554;1261;69922;-50
2023/07/14 04:06:00;;;;;;;7.70;2.80;;;;;;;13.80;84.48;100893.66;105419;1259;69917;-50
2023/07/14 04:08:36;;;;;;;7.30;2.80;;;;;;;13.82;84.39;100892.48;105603;1257;73727;-48
2023/07/14 04:11:04;;;;;;;6.50;3.10;;;;;;;13.86;84.63;100886.36;105439;1259;83137;-49
2023/07/14 04:13:33;;;;;;;4.40;2.60;;;;;;;13.94;84.72;100887.62;105435;1257;73654;-49
2023/07/14 04:16:04;;;;;;;6.00;3.00;;;;;;;14.00;84.68;100889.45;105459;1256;69946;-49
2023/07/14 04:18:33;;;;;;;6.50;3.30;;;;;;;14.09;84.72;100894.36;105463;1258;70000;-48
2023/07/14 04:21:04;;;;;;;4.80;2.30;;;;;;;14.20;84.85;100890.35;105487;1259;75012;-49
2023/07/14 04:23:33;;;;;;;4.80;2.70;;;;;;;14.27;84.73;100894.40;105484;1254;83433;-50
2023/07/14 04:26:02;;;;;;;5.40;2.50;;;;;;;14.34;84.50;100896.23;105467;1256;72481;-47
2023/07/14 04:28:30;;;;;;;4.30;2.50;;;;;;;14.41;84.53;100898.91;105486;1257;69935;-47
2023/07/14 04:31:00;;;;;;;5.40;2.70;;;;;;;14.46;84.42;100896.35;105410;1257;69877;-48
2023/07/14 04:33:29;;;;;;;;;;;;;;;14.52;84.52;100901.04;106366;1256;74827;-47
2023/07/14 04:35:59;;;;;;;4.20;2.30;;;;;;;14.58;84.50;100901.34;106295;1258;83402;-49
2023/07/14 04:38:29;;;;;;;6.40;2.60;;;;;;;14.65;84.45;100903.80;106544;1259;73396;-47
2023/07/14 04:40:57;;;;;;;4.10;2.50;;;;;;;14.72;84.38;100905.77;105816;1254;70050;-47
2023/07/14 04:43:26;;;;;;;7.10;2.90;;;;;;;14.79;84.38;100904.07;106025;1257;70090;-52
2023/07/14 04:45:54;;;;;;;5.80;3.10;;;;;;;14.87;84.33;100909.48;105478;1257;74202;-48
2023/07/14 04:48:23;;;;;;;6.40;2.90;;;;;;;14.96;84.27;100911.16;105499;1257;82668;-48
2023/07/14 04:50:51;;;;;;;5.10;2.70;;;;;;;15.08;84.20;100913.58;105772;1257;72857;-48
2023/07/14 04:53:20;;;;;;;4.70;2.70;;;;;;;15.22;83.97;100915.40;105585;1255;69944;-56
2023/07/14 04:55:48;;;;;;;7.10;2.80;;;;;;;15.36;83.88;100915.23;105579;1257;70085;-47
2023/07/14 04:58:17;;;;;;;3.80;2.50;;;;;;;15.51;83.67;100919.60;105488;1257;74981;-48
2023/07/14 05:00:46;;;;;;;3.50;2.50;;;;;;;15.65;83.35;100916.30;105611;1257;83414;-48
2023/07/14 05:03:15;;;;;;;6.10;2.80;;;;;;;15.80;83.41;100911.52;105577;1255;73561;-48
2023/07/14 05:05:45;;;;;;;8.50;3.00;;;;;;;15.96;83.47;100911.23;105663;1254;69868;-47
2023/07/14 05:08:13;;;;;;;5.00;2.40;;;;;;;16.08;83.37;100913.77;105825;1257;70248;-51
2023/07/14 05:10:41;;;;;;;6.40;2.70;;;;;;;16.17;83.16;100908.21;105503;1258;74839;-48
2023/07/14 05:13:10;;;;;;;7.60;3.00;;;;;;;16.27;83.20;100909.27;105478;1257;83570;-48
2023/07/14 05:15:41;;;;;;;4.80;2.70;;;;;;;16.39;83.28;100909.68;105447;1257;71573;-51
2023/07/14 05:18:10;;;;;;;4.00;2.40;;;;;;;16.52;82.87;100910.39;105521;1258;70022;-46
2023/07/14 05:20:40;;;;;;;6.00;2.30;;;;;;;16.63;82.66;100915.27;105776;1257;69985;-48
2023/07/14 05:23:10;;;;;;;4.80;2.70;;;;;;;16.76;82.21;100922.36;105592;1254;75772;-48
2023/07/14 05:25:38;;;;;;;;;;;;;;;16.90;81.90;100920.18;105608;1267;83673;-47
2023/07/14 05:28:07;;;;;;;4.00;1.90;;;;;;;17.06;81.45;100918.41;105486;1255;72811;-47
2023/07/14 05:30:36;;;;;;;6.90;2.90;;;;;;;17.19;80.18;100910.45;105606;1258;70008;-49
2023/07/14 05:33:04;;;;;;;4.50;2.00;;;;;;;17.30;79.39;100911.05;105651;1254;69974;-48
2023/07/14 05:35:33;;;;;;;5.20;2.20;;;;;;;17.42;78.70;100914.11;105501;1257;75141;-49
2023/07/14 05:38:01;;;;;;;4.10;1.90;;;;;;;17.52;78.23;100914.04;105718;1257;83649;-47
2023/07/14 05:40:31;;;;;;;5.30;1.90;;;;;;;17.62;77.67;100917.85;105448;1254;73424;-48
2023/07/14 05:43:20;;;;;;;6.10;2.30;;;;;;;17.74;77.09;100922.14;105484;1257;69999;-48
2023/07/14 05:45:48;;;;;;;3.40;1.70;;;;;;;17.81;76.43;100923.33;105602;1254;69989;-52
2023/07/14 05:48:17;;;;;;;3.80;1.90;;;;;;;17.87;76.02;100925.80;105613;1254;74613;-48
2023/07/14 05:50:47;;;;;;;4.70;1.90;;;;;;;17.93;75.63;100928.11;105750;1257;83203;-49
2023/07/14 05:53:17;;;;;;;3.90;2.00;;;;;;;18.00;75.22;100929.45;105713;1254;73920;-50
2023/07/14 05:55:47;;;;;;;3.60;2.40;;;;;;;18.08;75.08;100931.45;105455;1257;69919;-48
2023/07/14 05:58:16;;;;;;;2.70;1.80;;;;;;;18.14;74.79;100932.71;105614;1254;70159;-49
2023/07/14 06:00:44;;;;;;;4.90;2.20;;;;;;;18.17;74.35;100936.02;105854;1256;73923;-48
2023/07/14 06:03:16;;;;;;;3.40;2.10;;;;;;;18.21;74.29;100937.96;105548;1258;83867;-48
2023/07/14 06:05:46;;;;;;;5.20;2.20;;;;;;;18.22;73.94;100932.20;105432;1254;73595;-48
2023/07/14 06:08:15;;;;;;;5.30;1.80;;;;;;;18.25;73.46;100930.41;105521;1254;69988;-49
2023/07/14 06:10:46;;;;;;;5.50;1.90;;;;;;;18.29;73.51;100938.31;105582;1254;70017;-48
2023/07/14 06:13:14;;;;;;;2.50;1.50;;;;;;;18.35;73.16;100941.35;105489;1254;72577;-48
2023/07/14 06:15:46;;;;;;;4.20;1.80;;;;;;;18.40;72.70;100940.33;105521;1256;81461;-49
2023/07/14 06:18:16;;;;;;;5.00;2.40;;;;;;;18.43;72.59;100935.71;105449;1254;72822;-47
2023/07/14 06:20:44;;;;;;;3.40;2.10;;;;;;;18.47;72.32;100935.64;105891;1257;70741;-48
2023/07/14 06:23:13;;;;;;;4.50;1.90;;;;;;;18.50;71.89;100934.94;105711;1254;69130;-48
2023/07/14 06:25:41;;;;;;;5.10;2.10;;;;;;;18.56;71.73;100934.40;105481;1257;74898;-49
2023/07/14 06:28:10;;;;;;;3.50;1.70;;;;;;;18.63;71.38;100933.94;106096;1254;82828;-48
2023/07/14 06:30:38;;;;;;;5.20;1.80;;;;;;;18.68;70.91;100936.61;107884;1253;73450;-45
2023/07/14 06:33:07;;;;;;;2.90;1.80;;;;;;;18.76;70.70;100932.48;105604;1257;70027;-49
2023/07/14 06:35:37;;;;;;;3.70;1.30;;;;;;;18.82;70.08;100933.66;105416;1258;69978;-48
2023/07/14 06:38:06;;;;;;;4.10;1.50;;;;;;;18.87;69.69;100935.09;105515;1258;75082;-48
2023/07/14 06:40:34;;;;;;;4.00;1.80;;;;;;;18.91;69.68;100934.00;105458;1257;83249;-48
2023/07/14 06:43:04;;;;;;;4.00;1.60;;;;;;;18.96;69.39;100929.80;105379;1257;73928;-47
2023/07/14 06:45:33;;;;;;;3.50;1.60;;;;;;;19.00;69.20;100928.45;105405;1257;69920;-48
2023/07/14 06:48:02;;;;;;;3.40;1.60;;;;;;;19.05;69.05;100922.67;105458;1255;69994;-48
2023/07/14 06:50:31;;;;;;;2.90;1.40;;;;;;;19.11;68.74;100921.17;105496;1257;73787;-47
2023/07/14 06:52:59;;;;;;;4.50;1.90;;;;;;;19.20;68.52;100916.21;105419;1254;83651;-49
2023/07/14 06:55:27;;;;;;;3.20;1.50;;;;;;;19.29;68.36;100916.85;105372;1254;74541;-48
2023/07/14 06:57:56;;;;;;;6.10;1.60;;;;;;;19.37;68.25;100913.67;105417;1257;69984;-46
2023/07/14 07:00:24;;;;;;;4.20;1.80;;;;;;;19.45;68.32;100918.61;105456;1257;69919;-49
2023/07/14 07:02:53;;;;;;;3.90;1.60;;;;;;;19.51;68.33;100920.03;105437;1256;75273;-48
2023/07/14 07:05:22;;;;;;;3.80;1.60;;;;;;;19.57;68.20;100922.29;105448;1257;83272;-47
2023/07/14 07:07:51;;;;;;;3.90;1.50;;;;;;;19.60;67.57;100922.61;105384;1256;73033;-48
2023/07/14 07:10:19;;;;;;;2.80;1.50;;;;;;;19.59;67.25;100924.27;105453;1257;69997;-47
2023/07/14 07:12:48;;;;;;;3.70;1.30;;;;;;;19.60;67.22;100923.29;105485;1256;70008;-48
2023/07/14 07:15:16;;;;;;;3.40;1.30;;;;;;;19.67;67.37;100917.38;105382;1257;75154;-46
2023/07/14 07:17:46;;;;;;;2.70;1.30;;;;;;;19.75;67.21;100914.56;105404;1256;83627;-49
2023/07/14 07:20:15;;;;;;;;;;;;;;;19.81;66.57;100920.48;105513;1253;73709;-47
2023/07/14 07:22:45;;;;;;;4.00;1.70;;;;;;;19.83;66.03;100917.67;105674;1254;69955;-48
2023/07/14 07:25:14;;;;;;;2.30;1.30;;;;;;;19.83;65.50;100921.27;105404;1254;69971;-48
2023/07/14 07:27:43;;;;;;;3.30;1.50;;;;;;;19.82;65.17;100923.65;105464;1253;73488;-48
2023/07/14 07:30:14;;;;;;;4.70;1.50;;;;;;;19.85;64.85;100923.08;105451;1257;82197;-48
2023/07/14 07:32:45;;;;;;;1.80;1.40;;;;;;;19.90;64.72;100924.02;105464;1254;72797;-48
2023/07/14 07:35:14;;;;;;;2.60;1.30;;;;;;;19.95;64.38;100925.27;105446;1257;70207;-48
2023/07/14 07:37:43;;;;;;;3.60;1.40;;;;;;;19.96;64.28;100924.98;105401;1254;69988;-49
2023/07/14 07:40:11;;;;;;;2.20;1.30;;;;;;;20.06;64.20;100925.95;105678;1256;73825;-48
2023/07/14 07:42:40;;;;;;;3.10;1.60;;;;;;;20.13;63.90;100925.61;105465;1254;83786;-47
2023/07/14 07:45:10;;;;;;;2.00;1.30;;;;;;;20.21;63.79;100923.29;105503;1254;73445;-49
2023/07/14 07:47:38;;;;;;;3.00;1.80;;;;;;;20.29;63.47;100923.80;105489;1258;69904;-49
2023/07/14 07:50:07;;;;;;;3.30;1.10;;;;;;;20.37;63.08;100924.33;105396;1258;69879;-48
2023/07/14 07:52:36;;;;;;;4.70;1.60;;;;;;;20.40;62.05;100923.20;105703;1254;74885;-49
2023/07/14 07:55:04;;;;;;;2.00;1.20;;;;;;;20.44;61.91;100919.56;105420;1257;83115;-48
2023/07/14 07:57:33;;;;;;;4.70;1.40;;;;;;;20.49;61.90;100918.70;105427;1254;73805;-48
2023/07/14 08:00:03;;;;;;;2.20;1.40;;;;;;;20.55;62.02;100915.48;105410;1253;70315;-49
2023/07/14 08:02:41;;;;;;;1.80;1.50;;;;;;;20.62;61.70;100911.04;105429;1257;69993;-48
2023/07/14 08:05:12;;;;;;;3.40;1.60;;;;;;;20.68;61.42;100908.66;105691;1254;74705;-47
2023/07/14 08:07:40;;;;;;;2.30;1.20;;;;;;;20.76;61.53;100906.52;105514;1253;83624;-49
2023/07/14 08:10:09;;;;;;;3.30;1.20;;;;;;;20.87;61.52;100903.73;105478;1257;73330;-47
2023/07/14 08:12:37;;;;;;;2.10;1.20;;;;;;;21.01;61.32;100901.34;105462;1253;70003;-48
2023/07/14 08:15:08;;;;;;;3.20;1.30;;;;;;;21.12;60.82;100894.85;105394;1256;69860;-47
2023/07/14 08:17:52;;;;;;;2.70;1.60;;;;;;;21.23;60.55;100895.97;105278;1257;74788;-47
2023/07/14 08:20:21;;;;;;;4.10;1.60;;;;;;;21.40;60.45;100900.09;105574;1257;82196;-47
2023/07/14 08:22:50;;;;;;;3.80;1.30;;;;;;;21.52;60.18;100903.30;105517;1255;73519;-48
2023/07/14 08:25:18;;;;;;;3.50;1.20;;;;;;;21.65;60.09;100906.02;105648;1257;70005;-47
2023/07/14 08:27:46;;;;;;;6.50;1.50;;;;;;;21.75;59.51;100905.94;105452;1257;69982;-48
2023/07/14 08:30:15;;;;;;;2.60;1.30;;;;;;;21.78;58.57;100905.23;105378;1253;74696;-47
2023/07/14 08:32:43;;;;;;;1.70;1.40;;;;;;;21.78;58.70;100904.09;105584;1257;83142;-49
2023/07/14 08:35:12;;;;;;;3.50;1.60;;;;;;;21.94;58.61;100902.02;105517;1257;73874;-48
2023/07/14 08:37:40;;;;;;;1.60;1.10;;;;;;;22.08;58.20;100900.94;105483;1254;69873;-48
2023/07/14 08:40:13;;;;;;;3.70;1.40;;;;;;;22.22;58.20;100901.90;105682;1253;70007;-46
2023/07/14 08:42:52;;;;;;;2.50;1.40;;;;;;;22.46;58.34;100896.77;105401;1257;75024;-48
2023/07/14 08:45:58;;;;;;;2.60;1.30;;;;;;;22.71;57.97;100894.23;105292;1255;83341;-47
2023/07/14 08:48:31;;;;;;;2.30;1.20;;;;;;;22.83;57.38;100894.67;105407;1257;73389;-47
2023/07/14 08:51:08;;;;;;;3.00;1.30;;;;;;;22.90;57.04;100894.67;105436;1253;69980;-47
2023/07/14 08:53:37;;;;;;;1.90;1.20;;;;;;;23.04;56.53;100896.80;105406;1253;70000;-48
2023/07/14 08:56:05;;;;;;;2.10;1.00;;;;;;;23.19;55.98;100885.42;105419;1257;74646;-48
2023/07/14 08:58:36;;;;;;;3.80;1.50;;;;;;;23.41;55.79;100884.63;105479;1253;82316;-48
2023/07/14 09:01:21;;;;;;;3.70;1.40;;;;;;;23.62;54.94;100885.03;105401;1256;72704;-48
2023/07/14 09:03:53;;;;;;;3.90;1.40;;;;;;;23.73;54.48;100885.89;105425;1253;69878;-47
2023/07/14 09:06:29;;;;;;;2.50;1.40;;;;;;;23.92;54.50;100881.46;105437;1257;69965;-48
2023/07/14 09:08:58;;;;;;;2.50;1.20;;;;;;;24.02;53.70;100879.99;105595;1253;74284;-48
2023/07/14 09:11:47;;;;;;;3.10;1.50;;;;;;;24.00;53.40;100882.47;105460;1253;81781;-48
2023/07/14 09:14:48;;;;;;;2.30;1.00;;;;;;;23.94;53.17;100885.16;105351;1253;72679;-47
2023/07/14 09:17:17;;;;;;;2.80;1.40;;;;;;;23.96;52.99;100887.69;105467;1254;70017;-47
2023/07/14 09:20:19;;;;;;;4.10;1.30;;;;;;;24.01;52.68;100891.02;105545;1253;69995;-49
2023/07/14 09:22:56;;;;;;;3.00;1.20;;;;;;;23.98;51.93;100884.63;105380;1253;73872;-48
2023/07/14 09:25:26;;;;;;;2.10;1.30;;;;;;;23.99;51.67;100886.20;105453;1253;82483;-48
2023/07/14 09:27:55;;;;;;;5.10;1.30;;;;;;;24.04;51.50;100880.21;105441;1254;73490;-49
2023/07/14 09:30:26;;;;;;;5.60;1.40;;;;;;;24.09;50.97;100880.33;105504;1257;70096;-48
2023/07/14 09:33:02;;;;;;;1.90;1.10;;;;;;;24.13;50.62;100880.90;105369;1257;69989;-49
2023/07/14 09:35:30;;;;;;;3.80;1.80;;;;;;;24.21;50.42;100876.95;105475;1256;75036;-48
2023/07/14 09:38:05;;;;;;;;;;;;;;;24.31;49.99;100876.14;105331;1257;83661;-49
2023/07/14 09:40:36;;;;;;;2.70;1.30;;;;;;;24.34;49.45;100871.00;105391;1253;73659;-48
2023/07/14 09:43:05;;;;;;;1.60;1.20;;;;;;;24.29;49.13;100870.71;105429;1253;69990;-49
2023/07/14 09:45:36;;;;;;;2.20;1.10;;;;;;;24.28;49.01;100869.39;105503;1257;70023;-48
2023/07/14 09:48:18;;;;;;;4.20;1.30;;;;;;;24.38;49.61;100864.55;105397;1253;74888;-50
2023/07/14 09:50:58;;;;;;;2.30;1.30;;;;;;;24.52;49.75;100861.08;105389;1257;83679;-48
2023/07/14 09:53:28;;;;;;;3.80;1.40;;;;;;;24.64;49.13;100861.80;105388;1253;72307;-47
2023/07/14 09:55:59;;;;;;;2.60;1.20;;;;;;;24.60;48.35;100860.02;105457;1253;70032;-47
2023/07/14 09:58:30;;;;;;;2.20;1.20;;;;;;;24.55;48.00;100859.06;105409;1257;70017;-48
2023/07/14 10:01:03;;;;;;;2.30;1.20;;;;;;;24.48;47.54;100849.05;105432;1253;74715;-48
2023/07/14 10:03:42;;;;;;;2.00;1.10;;;;;;;24.46;47.41;100847.13;105473;1253;83235;-49
2023/07/14 10:06:24;;;;;;;3.00;1.40;;;;;;;24.58;47.33;100844.98;105376;1257;73753;-48
2023/07/14 10:08:59;;;;;;;;;;;;;;;24.67;46.87;100843.66;105447;1254;70000;-48
2023/07/14 10:11:44;;;;;;;4.00;1.20;;;;;;;24.81;46.85;100841.14;105450;1254;69914;-48
2023/07/14 10:14:25;;;;;;;3.90;1.20;;;;;;;25.14;47.04;100836.75;105406;1253;74574;-48
2023/07/14 10:16:56;;;;;;;2.70;1.20;;;;;;;25.29;46.05;100839.34;105421;1253;82483;-49
2023/07/14 10:19:37;;;;;;;3.40;1.30;;;;;;;25.20;45.68;100832.14;105592;1257;72993;-49
2023/07/14 10:22:08;;;;;;;4.00;1.30;;;;;;;25.20;45.95;100834.47;105392;1253;69877;-49
2023/07/14 10:24:37;;;;;;;2.30;1.40;;;;;;;25.27;45.64;100835.33;105439;1257;69914;-52
2023/07/14 10:27:21;;;;;;;1.10;0.90;;;;;;;25.46;45.38;100835.07;105449;1256;74800;-49
2023/07/14 10:29:50;;;;;;;7.20;1.60;;;;;;;25.55;44.82;100836.11;105442;1257;83211;-46
2023/07/14 10:32:30;;;;;;;3.20;1.10;;;;;;;25.66;44.73;100832.77;105402;1257;73732;-49
2023/07/14 10:35:08;;;;;;;2.10;1.10;;;;;;;25.78;44.32;100825.79;105668;1257;69886;-46
2023/07/14 10:37:51;;;;;;;4.10;1.50;;;;;;;25.99;44.12;100825.63;105430;1253;70019;-45
2023/07/14 10:40:23;;;;;;;1.80;1.00;;;;;;;26.35;44.00;100824.46;105368;1257;74640;-46
2023/07/14 10:43:01;;;;;;;2.40;1.10;;;;;;;26.33;43.83;100823.73;105398;1253;82446;-47
2023/07/14 10:45:32;;;;;;;1.90;1.20;;;;;;;26.45;43.39;100822.92;105427;1255;73849;-46
2023/07/14 10:48:21;;;;;;;4.50;1.20;;;;;;;26.56;43.29;100822.30;105410;1253;69914;-48
2023/07/14 10:51:04;;;;;;;3.00;2.00;;;;;;;26.44;42.74;100821.30;105417;1253;70085;-50
2023/07/14 10:53:38;;;;;;;3.20;1.40;;;;;;;26.17;42.24;100818.83;105398;1253;74925;-46
2023/07/14 10:56:23;;;;;;;2.20;1.30;;;;;;;26.01;42.36;100821.63;105527;1257;83241;-46
2023/07/14 10:58:59;;;;;;;2.60;1.10;;;;;;;25.99;42.41;100813.08;105367;1257;73891;-46
2023/07/14 11:01:35;;;;;;;3.20;1.40;;;;;;;25.95;42.27;100812.93;105564;1256;70005;-48
2023/07/14 11:04:25;;;;;;;2.20;1.10;;;;;;;26.21;42.38;100805.27;105393;1253;69890;-46
2023/07/14 11:06:55;;;;;;;2.30;1.00;;;;;;;26.83;42.55;100799.56;105422;1253;74801;-45
2023/07/14 11:09:25;;;;;;;4.10;1.30;;;;;;;27.13;41.96;100796.39;105437;1253;83227;-47
2023/07/14 11:12:15;;;;;;;3.20;1.40;;;;;;;27.23;41.86;100796.47;105407;1256;72699;-45
2023/07/14 11:14:54;;;;;;;2.10;1.00;;;;;;;27.36;41.52;100795.34;105358;1257;70290;-47
2023/07/14 11:17:25;;;;;;;;;;;;;;;27.87;41.22;100792.79;105412;1257;69984;-46
2023/07/14 11:20:28;;;;;;;3.80;1.10;;;;;;;28.31;40.82;100788.30;105465;1257;74812;-46
2023/07/14 11:23:12;;;;;;;1.70;1.40;;;;;;;28.72;40.05;100784.67;105446;1253;83795;-48
2023/07/14 11:26:08;;;;;;;5.60;1.00;;;;;;;29.08;39.77;100781.52;105407;1253;73923;-47
2023/07/14 11:28:51;;;;;;;1.40;1.10;;;;;;;29.53;38.99;100781.45;105629;1254;70363;-47
2023/07/14 11:31:31;;;;;;;4.60;1.00;;;;;;;29.80;38.52;100777.75;105367;1257;69857;-50
2023/07/14 11:34:06;;;;;;;3.10;1.10;;;;;;;30.22;38.58;100769.92;105408;1256;74926;-49
2023/07/14 11:36:44;;;;;;;3.50;1.40;;;;;;;30.73;38.34;100762.77;105387;1253;83577;-46
2023/07/14 11:39:39;;;;;;;1.30;0.70;;;;;;;30.97;37.42;100761.20;105400;1257;73845;-47
2023/07/14 11:42:23;;;;;;;1.80;0.90;;;;;;;31.07;36.20;100762.73;105259;1254;69933;-52
2023/07/14 11:44:53;;;;;;;2.50;0.60;;;;;;;31.43;35.95;100759.69;105181;1254;69982;-49